Time;durP1;ratioP1;P1;durP2;ratioP2;P2;SDS_P1;SDS_P2;PMS_P1;PMS_P2;Temp;Humidity;BMP_temperature;BMP_pressure;BME280_temperature;BME280_humidity;BME280_pressure;Samples;Min_cycle;Max_cycle;Signal;HPM_P1;HPM_P2
2023/04/11 00:01:25;;;;;;;1.90;1.80;;;14.30;99.90;;;14.41;nan;100248.63;5026751;28;20660;-66
2023/04/11 00:03:53;;;;;;;1.73;1.63;;;14.20;99.90;;;14.26;nan;100247.41;5014008;28;20661;-66
2023/04/11 00:06:20;;;;;;;1.60;1.60;;;14.00;99.90;;;14.17;nan;100246.47;5029917;28;20624;-66
2023/04/11 00:08:47;;;;;;;1.20;1.10;;;13.90;99.90;;;14.10;nan;100231.44;5027819;28;20632;-67
2023/04/11 00:11:15;;;;;;;1.10;1.10;;;13.80;99.90;;;14.04;nan;100227.59;5027324;28;21192;-67
2023/04/11 00:13:43;;;;;;;1.90;1.80;;;13.80;99.90;;;14.02;nan;100227.72;5031334;28;20647;-66
2023/04/11 00:16:10;;;;;;;1.63;1.53;;;13.80;99.90;;;14.02;nan;100232.16;5028696;28;20640;-67
2023/04/11 00:18:38;;;;;;;1.00;0.97;;;13.70;99.90;;;13.97;nan;100232.56;5014546;28;20617;-67
2023/04/11 00:21:07;;;;;;;0.93;0.90;;;13.70;99.90;;;13.93;nan;100225.94;5021708;28;20686;-67
2023/04/11 00:23:34;;;;;;;1.20;1.13;;;13.70;99.90;;;13.91;nan;100221.81;5034164;28;20636;-66
2023/04/11 00:26:01;;;;;;;1.10;1.10;;;13.60;99.90;;;13.92;nan;100226.09;5033113;28;20636;-67
2023/04/11 00:28:28;;;;;;;1.53;0.87;;;13.70;99.90;;;13.93;nan;100227.75;5032182;28;20639;-66
2023/04/11 00:30:55;;;;;;;1.10;1.10;;;13.70;99.90;;;13.88;nan;100214.25;5032774;28;21187;-66
2023/04/11 00:33:22;;;;;;;0.77;0.77;;;13.60;99.90;;;13.83;nan;100214.66;5032862;28;20628;-69
2023/04/11 00:35:49;;;;;;;0.90;0.90;;;13.50;99.90;;;13.80;nan;100228.03;5033805;28;20616;-66
2023/04/11 00:38:17;;;;;;;2.80;1.43;;;13.50;99.90;;;13.80;nan;100243.78;5033237;28;20638;-66
2023/04/11 00:40:45;;;;;;;0.97;0.97;;;13.50;99.90;;;13.79;nan;100230.81;5025868;28;20620;-67
2023/04/11 00:43:12;;;;;;;1.00;1.00;;;13.50;99.90;;;13.80;nan;100214.09;5032415;28;20665;-66
2023/04/11 00:45:39;;;;;;;1.00;1.00;;;13.50;99.90;;;13.75;nan;100214.53;5032644;28;20631;-68
2023/04/11 00:48:06;;;;;;;2.07;1.10;;;13.50;99.90;;;13.74;nan;100212.88;5015509;28;21017;-66
2023/04/11 00:50:39;;;;;;;1.27;1.17;;;13.50;99.90;;;13.72;nan;100196.47;5013659;28;20671;-67
2023/04/11 00:53:10;;;;;;;0.83;0.83;;;13.50;99.90;;;13.68;nan;100194.25;5028300;28;21230;-67
2023/04/11 00:55:37;;;;;;;1.20;0.93;;;13.40;99.90;;;13.68;nan;100196.88;5032416;28;20757;-67
2023/04/11 00:58:06;;;;;;;1.03;1.03;;;13.40;99.90;;;13.65;nan;100199.78;5031358;28;20636;-66
2023/04/11 01:00:34;;;;;;;1.17;1.17;;;13.40;99.90;;;13.65;nan;100205.84;5032224;28;20644;-67
2023/04/11 01:03:01;;;;;;;0.77;0.77;;;13.40;99.90;;;13.65;nan;100218.94;5031403;28;21293;-67
2023/04/11 01:05:30;;;;;;;1.20;1.20;;;13.40;99.90;;;13.63;nan;100220.88;5027267;28;20649;-67
2023/04/11 01:07:59;;;;;;;1.30;1.20;;;13.40;99.90;;;13.63;nan;100231.38;5013959;28;21343;-66
2023/04/11 01:10:29;;;;;;;1.77;1.23;;;13.40;99.90;;;13.61;nan;100233.31;5027266;28;20633;-66
2023/04/11 01:12:58;;;;;;;1.03;1.03;;;13.30;99.90;;;13.60;nan;100226.44;5012627;28;20629;-66
2023/04/11 01:15:25;;;;;;;2.60;1.43;;;13.30;99.90;;;13.54;nan;100231.38;5026931;28;20669;-67
2023/04/11 01:17:56;;;;;;;1.37;1.27;;;13.30;99.90;;;13.52;nan;100230.72;5021028;28;20644;-65
2023/04/11 01:20:25;;;;;;;1.43;1.00;;;13.30;99.90;;;13.45;nan;100237.44;5022476;28;20644;-67
2023/04/11 01:22:53;;;;;;;11.23;1.53;;;13.20;99.90;;;13.38;nan;100241.56;5022765;28;21333;-66
2023/04/11 01:25:21;;;;;;;1.37;1.30;;;13.10;99.90;;;13.34;nan;100243.66;5024321;28;20701;-66
2023/04/11 01:27:48;;;;;;;1.30;1.20;;;13.10;99.90;;;13.32;nan;100252.63;5023827;28;20640;-66
2023/04/11 01:30:15;;;;;;;6.53;0.80;;;13.00;99.90;;;13.31;nan;100262.25;5027802;28;20648;-67
2023/04/11 01:32:42;;;;;;;1.67;1.20;;;13.00;99.90;;;13.32;nan;100268.34;5027519;28;20640;-66
2023/04/11 01:35:11;;;;;;;1.10;1.10;;;13.10;99.90;;;13.29;nan;100258.94;5027391;28;20721;-67
2023/04/11 01:37:38;;;;;;;1.43;1.27;;;13.00;99.90;;;13.24;nan;100254.13;5028080;28;20651;-68
2023/04/11 01:40:06;;;;;;;0.60;0.60;;;13.00;99.90;;;13.22;nan;100258.66;5031692;28;20644;-66
2023/04/11 01:42:34;;;;;;;0.50;0.50;;;12.90;99.90;;;13.23;nan;100254.25;5018441;28;20743;-67
2023/04/11 01:45:05;;;;;;;0.60;0.60;;;13.00;99.90;;;13.23;nan;100256.88;5021948;28;20644;-66
2023/04/11 01:47:32;;;;;;;0.47;0.47;;;13.00;99.90;;;13.25;nan;100254.94;5021681;28;21059;-66
2023/04/11 01:49:59;;;;;;;0.87;0.87;;;13.00;99.90;;;13.21;nan;100258.81;5023019;28;20622;-66
2023/04/11 01:52:26;;;;;;;0.77;0.70;;;13.00;99.90;;;13.19;nan;100258.94;5022659;28;21200;-68
2023/04/11 01:54:53;;;;;;;0.50;0.50;;;12.90;99.90;;;13.16;nan;100264.44;5016651;28;20665;-66
2023/04/11 01:57:20;;;;;;;0.70;0.70;;;12.90;99.90;;;13.16;nan;100263.66;5010908;28;20625;-68
2023/04/11 01:59:47;;;;;;;0.90;0.90;;;12.90;99.90;;;13.14;nan;100261.13;5022165;28;20636;-65
2023/04/11 02:02:14;;;;;;;0.90;0.90;;;12.90;99.90;;;13.13;nan;100253.44;5023211;28;20699;-65
2023/04/11 02:04:41;;;;;;;1.27;0.73;;;12.90;99.90;;;13.08;nan;100256.44;5032154;28;20649;-66
2023/04/11 02:07:08;;;;;;;2.37;0.90;;;12.90;99.90;;;13.06;nan;100252.31;5030854;28;20999;-66
2023/04/11 02:09:36;;;;;;;0.70;0.70;;;12.80;99.90;;;13.00;nan;100256.28;5022181;28;20683;-65
2023/04/11 02:12:03;;;;;;;0.60;0.60;;;12.80;99.90;;;12.98;nan;100257.34;5032021;28;20613;-68
2023/04/11 02:14:44;;;;;;;0.53;0.50;;;12.70;99.90;;;12.92;nan;100261.34;5030103;28;20680;-65
2023/04/11 02:17:12;;;;;;;0.57;0.57;;;12.70;99.90;;;12.84;nan;100268.22;5030441;28;21071;-66
2023/04/11 02:19:40;;;;;;;0.60;0.60;;;12.60;99.90;;;12.76;nan;100265.41;5030670;28;20628;-65
2023/04/11 02:22:10;;;;;;;0.50;0.50;;;12.50;99.90;;;12.68;nan;100258.25;5030891;28;20664;-69
2023/04/11 02:24:37;;;;;;;0.50;0.50;;;12.40;99.90;;;12.65;nan;100263.72;5013643;28;20640;-66
2023/04/11 02:27:05;;;;;;;3.77;0.67;;;12.40;99.90;;;12.68;nan;100267.88;5030339;28;21187;-65
2023/04/11 02:29:33;;;;;;;0.70;0.70;;;12.40;99.90;;;12.71;nan;100270.25;5030746;28;20612;-66
2023/04/11 02:31:59;;;;;;;1.27;0.70;;;12.40;99.90;;;12.77;nan;100269.69;5028988;28;20670;-66
2023/04/11 02:34:26;;;;;;;1.23;0.53;;;12.50;99.90;;;12.77;nan;100267.09;5029768;28;20674;-66
2023/04/11 02:36:54;;;;;;;0.57;0.57;;;12.50;99.90;;;12.77;nan;100277.56;5024551;28;20653;-67
2023/04/11 02:39:24;;;;;;;1.17;0.60;;;12.50;99.90;;;12.77;nan;100282.78;5022897;28;21062;-65
2023/04/11 02:41:51;;;;;;;0.53;0.53;;;12.50;99.90;;;12.76;nan;100284.56;5029789;28;21049;-64
2023/04/11 02:44:18;;;;;;;0.60;0.60;;;12.50;99.90;;;12.77;nan;100288.03;5026245;28;20718;-64
2023/04/11 02:46:45;;;;;;;4.63;0.70;;;12.50;99.90;;;12.76;nan;100286.34;5029423;28;21018;-69
2023/04/11 02:49:12;;;;;;;0.47;0.47;;;12.50;99.90;;;12.74;nan;100277.81;5016033;28;21224;-66
2023/04/11 02:51:39;;;;;;;0.63;0.63;;;12.50;99.90;;;12.72;nan;100272.72;5029613;28;20636;-66
2023/04/11 02:54:07;;;;;;;0.40;0.40;;;12.50;99.90;;;12.74;nan;100277.81;5029202;28;20672;-66
2023/04/11 02:56:37;;;;;;;0.50;0.50;;;12.50;99.90;;;12.71;nan;100292.00;5031290;28;20639;-66
2023/04/11 02:59:05;;;;;;;0.80;0.53;;;12.50;99.90;;;12.68;nan;100299.28;5030547;28;20644;-66
2023/04/11 03:01:33;;;;;;;0.50;0.50;;;12.50;99.90;;;12.59;nan;100300.06;5022387;28;20637;-67
2023/04/11 03:04:00;;;;;;;0.40;0.40;;;12.40;99.90;;;12.52;nan;100298.94;5023978;28;20710;-65
2023/04/11 03:06:28;;;;;;;0.50;0.50;;;12.30;99.90;;;12.48;nan;100280.03;5024562;28;20660;-67
2023/04/11 03:08:55;;;;;;;0.60;0.60;;;12.30;99.90;;;12.40;nan;100282.50;5021073;28;20695;-65
2023/04/11 03:11:22;;;;;;;0.53;0.53;;;12.20;99.90;;;12.37;nan;100283.56;5021101;28;20629;-66
2023/04/11 03:13:49;;;;;;;1.07;0.57;;;12.20;99.90;;;12.37;nan;100291.41;5028060;28;20661;-66
2023/04/11 03:16:16;;;;;;;1.40;0.60;;;12.20;99.90;;;12.37;nan;100290.63;5029698;28;20693;-65
2023/04/11 03:18:43;;;;;;;3.50;0.50;;;12.20;99.90;;;12.36;nan;100300.25;5024027;28;20641;-66
2023/04/11 03:21:10;;;;;;;0.50;0.50;;;12.20;99.90;;;12.39;nan;100309.63;5015368;28;20628;-67
2023/04/11 03:23:37;;;;;;;0.47;0.47;;;12.20;99.90;;;12.41;nan;100313.75;5030541;28;20730;-67
2023/04/11 03:26:07;;;;;;;0.47;0.47;;;12.20;99.90;;;12.40;nan;100312.09;5027725;28;20685;-67
2023/04/11 03:28:34;;;;;;;0.50;0.50;;;12.20;99.90;;;12.40;nan;100312.09;5030335;28;20644;-69
2023/04/11 03:31:01;;;;;;;0.63;0.63;;;12.20;99.90;;;12.39;nan;100305.19;5029255;28;20670;-67
2023/04/11 03:33:28;;;;;;;0.50;0.50;;;12.20;99.90;;;12.41;nan;100299.84;5024657;28;20665;-68
2023/04/11 03:35:55;;;;;;;0.67;0.50;;;12.20;99.90;;;12.39;nan;100299.16;5012034;28;20640;-66
2023/04/11 03:38:22;;;;;;;0.70;0.70;;;12.20;99.90;;;12.40;nan;100299.03;5009893;28;20684;-66
2023/04/11 03:40:49;;;;;;;0.50;0.50;;;12.20;99.90;;;12.42;nan;100310.19;5010256;28;20702;-67
2023/04/11 03:43:16;;;;;;;0.83;0.83;;;12.20;99.90;;;12.42;nan;100318.03;5020540;28;20750;-66
2023/04/11 03:45:43;;;;;;;1.10;1.00;;;12.20;99.90;;;12.35;nan;100316.06;5029160;28;20624;-66
2023/04/11 03:48:10;;;;;;;0.70;0.70;;;12.20;99.90;;;12.34;nan;100304.78;5029625;28;20628;-66
2023/04/11 03:50:38;;;;;;;1.33;0.70;;;12.10;99.90;;;12.27;nan;100301.00;5034227;28;20624;-67
2023/04/11 03:53:06;;;;;;;0.40;0.40;;;12.10;99.90;;;12.26;nan;100299.38;5040304;28;20629;-67
2023/04/11 03:55:32;;;;;;;0.40;0.40;;;12.10;99.90;;;12.23;nan;100306.63;5032690;28;20650;-66
2023/04/11 03:57:59;;;;;;;1.23;0.60;;;12.10;99.90;;;12.22;nan;100308.41;5024616;28;20711;-67
2023/04/11 04:00:27;;;;;;;0.47;0.47;;;12.00;99.90;;;12.23;nan;100315.31;5021034;28;20633;-65
2023/04/11 04:02:54;;;;;;;0.40;0.40;;;12.00;99.90;;;12.21;nan;100311.16;5027728;28;20665;-66
2023/04/11 04:05:21;;;;;;;0.40;0.40;;;12.00;99.90;;;12.15;nan;100316.91;5026112;28;20748;-67
2023/04/11 04:07:48;;;;;;;0.50;0.50;;;11.90;99.90;;;12.11;nan;100295.41;5029038;28;20705;-65
2023/04/11 04:10:15;;;;;;;0.40;0.40;;;11.90;99.90;;;12.02;nan;100288.34;5022391;28;21183;-65
2023/04/11 04:12:42;;;;;;;0.30;0.30;;;11.80;99.90;;;11.93;nan;100280.41;5029336;28;20972;-66
2023/04/11 04:15:12;;;;;;;0.50;0.50;;;11.70;99.90;;;11.91;nan;100272.69;5033140;28;20657;-65
2023/04/11 04:17:41;;;;;;;0.50;0.50;;;11.70;99.90;;;11.87;nan;100280.91;5032517;28;20970;-66
2023/04/11 04:20:09;;;;;;;0.77;0.50;;;11.70;99.90;;;11.87;nan;100286.16;5029456;28;20636;-70
2023/04/11 04:22:37;;;;;;;1.40;0.50;;;11.70;99.90;;;11.86;nan;100280.09;5009351;28;20671;-67
2023/04/11 04:25:04;;;;;;;0.40;0.40;;;11.60;99.90;;;11.86;nan;100274.84;5021418;28;21343;-67
2023/04/11 04:27:31;;;;;;;0.50;0.50;;;11.60;99.90;;;11.84;nan;100283.81;5024108;28;20628;-67
2023/04/11 04:29:58;;;;;;;0.67;0.40;;;11.60;99.90;;;11.83;nan;100295.19;5023389;28;20679;-68
2023/04/11 04:32:29;;;;;;;0.40;0.40;;;11.60;99.90;;;11.81;nan;100311.03;5021614;28;21192;-66
2023/04/11 04:34:57;;;;;;;0.70;0.70;;;11.60;99.90;;;11.82;nan;100325.72;5023097;28;20674;-67
2023/04/11 04:37:25;;;;;;;0.50;0.50;;;11.60;99.90;;;11.81;nan;100324.09;5029809;28;20639;-68
2023/04/11 04:39:55;;;;;;;0.60;0.60;;;11.60;99.90;;;11.84;nan;100317.78;5027190;28;20647;-66
2023/04/11 04:42:27;;;;;;;0.77;0.77;;;11.60;99.90;;;11.86;nan;100323.72;5020725;28;20919;-66
2023/04/11 04:44:56;;;;;;;0.60;0.60;;;11.70;99.90;;;11.87;nan;100320.97;5025240;28;21204;-65
2023/04/11 04:47:28;;;;;;;0.47;0.47;;;11.70;99.90;;;11.85;nan;100325.50;5019054;28;20631;-66
2023/04/11 04:49:56;;;;;;;0.60;0.60;;;11.70;99.90;;;11.80;nan;100322.41;5017821;28;20628;-65
2023/04/11 04:52:24;;;;;;;0.53;0.53;;;11.60;99.90;;;11.71;nan;100302.28;5030271;28;20635;-68
2023/04/11 04:54:52;;;;;;;0.50;0.40;;;11.50;99.90;;;11.58;nan;100312.84;5021237;28;20664;-66
2023/04/11 04:57:20;;;;;;;0.60;0.60;;;11.40;99.90;;;11.51;nan;100316.09;5031073;28;20613;-67
2023/04/11 04:59:46;;;;;;;0.80;0.70;;;11.30;99.90;;;11.49;nan;100318.00;5028398;28;20637;-67
2023/04/11 05:02:15;;;;;;;0.50;0.50;;;11.30;99.90;;;11.45;nan;100321.81;5020244;28;20699;-66
2023/04/11 05:04:45;;;;;;;1.00;0.70;;;11.30;99.90;;;11.45;nan;100321.81;5025146;28;20676;-68
2023/04/11 05:07:15;;;;;;;0.30;0.30;;;11.30;99.90;;;11.47;nan;100332.97;5031753;28;20642;-66
2023/04/11 05:09:42;;;;;;;0.60;0.60;;;11.30;99.90;;;11.49;nan;100333.66;5032425;28;20931;-66
2023/04/11 05:12:09;;;;;;;0.70;0.70;;;11.30;99.90;;;11.55;nan;100336.63;5031847;28;21192;-66
2023/04/11 05:14:36;;;;;;;0.40;0.40;;;11.30;99.90;;;11.56;nan;100340.06;5018445;28;20667;-66
2023/04/11 05:17:03;;;;;;;0.60;0.60;;;11.30;99.90;;;11.56;nan;100350.53;5023769;28;20629;-66
2023/04/11 05:19:31;;;;;;;2.63;0.67;;;11.40;99.90;;;11.59;nan;100352.88;5019779;28;20622;-65
2023/04/11 05:21:58;;;;;;;0.70;0.70;;;11.40;99.90;;;11.61;nan;100343.97;5020245;28;20705;-65
2023/04/11 05:24:25;;;;;;;0.40;0.40;;;11.40;99.90;;;11.65;nan;100347.16;5029576;28;20676;-65
2023/04/11 05:26:52;;;;;;;1.07;0.50;;;11.50;99.90;;;11.65;nan;100353.22;5021541;28;20613;-68
2023/04/11 05:29:19;;;;;;;1.30;0.93;;;11.50;99.90;;;11.68;nan;100373.91;5024899;28;20997;-66
2023/04/11 05:31:46;;;;;;;0.70;0.70;;;11.50;99.90;;;11.74;nan;100371.75;5029312;28;20967;-64
2023/04/11 05:34:13;;;;;;;1.20;0.70;;;11.50;99.90;;;11.76;nan;100372.44;5022832;28;20669;-66
2023/04/11 05:36:40;;;;;;;2.70;0.87;;;11.50;99.90;;;11.79;nan;100374.81;5025218;28;20629;-66
2023/04/11 05:39:10;;;;;;;0.60;0.60;;;11.60;99.90;;;11.80;nan;100373.88;5015419;28;20644;-67
2023/04/11 05:41:40;;;;;;;1.33;0.83;;;11.60;99.90;;;11.84;nan;100380.53;5022683;28;20996;-66
2023/04/11 05:44:09;;;;;;;0.60;0.60;;;11.60;99.90;;;11.88;nan;100376.69;5011963;28;20730;-65
2023/04/11 05:46:39;;;;;;;1.03;0.80;;;11.70;99.90;;;11.95;nan;100380.47;5028705;28;20643;-66
2023/04/11 05:49:13;;;;;;;5.10;0.83;;;11.70;99.90;;;12.00;nan;100387.00;5014375;28;20624;-66
2023/04/11 05:51:40;;;;;;;0.80;0.80;;;11.80;99.90;;;12.07;nan;100396.00;5021642;28;20693;-67
2023/04/11 05:54:10;;;;;;;0.70;0.70;;;11.80;99.90;;;12.16;nan;100395.22;5031893;28;21203;-69
2023/04/11 05:56:38;;;;;;;2.67;0.87;;;11.90;99.90;;;12.23;nan;100399.00;5029753;28;20629;-69
2023/04/11 05:59:05;;;;;;;0.90;0.90;;;12.00;99.90;;;12.32;nan;100411.34;5028905;28;20597;-65
2023/04/11 06:01:38;;;;;;;1.63;0.90;;;12.10;99.90;;;12.42;nan;100409.63;5029756;28;20670;-66
2023/04/11 06:04:05;;;;;;;1.03;1.03;;;12.20;99.90;;;12.55;nan;100411.19;5025895;28;20680;-66
2023/04/11 06:06:35;;;;;;;1.00;0.77;;;12.30;99.90;;;12.70;nan;100423.00;5022431;28;20624;-67
2023/04/11 06:09:03;;;;;;;0.90;0.90;;;12.50;99.90;;;12.87;nan;100423.25;5026132;28;20636;-66
2023/04/11 06:11:30;;;;;;;1.20;0.70;;;12.60;99.90;;;13.00;nan;100430.91;5029832;28;20693;-66
2023/04/11 06:13:59;;;;;;;1.10;0.87;;;12.80;99.90;;;13.11;nan;100433.47;5029856;28;20664;-68
2023/04/11 06:16:37;;;;;;;1.37;0.90;;;12.90;99.90;;;13.20;nan;100448.41;5029195;28;21164;-67
2023/04/11 06:19:07;;;;;;;0.90;0.80;;;13.00;99.90;;;13.35;nan;100443.63;5021725;28;20694;-68
2023/04/11 06:21:37;;;;;;;1.43;0.90;;;13.10;99.90;;;13.61;nan;100436.94;5028476;28;20632;-68
2023/04/11 06:24:09;;;;;;;2.17;0.73;;;13.30;99.90;;;13.90;nan;100438.69;5020813;28;20673;-66
2023/04/11 06:26:39;;;;;;;0.43;0.43;;;13.60;99.90;;;13.99;nan;100440.47;5027791;28;20633;-67
2023/04/11 06:29:15;;;;;;;0.93;0.80;;;13.80;99.90;;;14.21;nan;100443.78;5022553;28;20687;-67
2023/04/11 06:31:54;;;;;;;0.70;0.70;;;14.00;99.90;;;14.59;nan;100449.06;5022825;28;20629;-65
2023/04/11 06:34:27;;;;;;;3.83;1.77;;;14.30;99.90;;;15.19;nan;100443.38;5027932;28;20726;-65
2023/04/11 06:36:56;;;;;;;2.20;0.77;;;14.90;99.90;;;15.70;nan;100445.53;5028755;28;20954;-66
2023/04/11 06:39:24;;;;;;;1.80;1.00;;;15.40;99.90;;;16.10;nan;100453.00;5027901;28;21174;-66
2023/04/11 06:41:50;;;;;;;1.23;1.00;;;15.90;99.90;;;16.30;nan;100455.38;5024368;28;20644;-66
2023/04/11 06:44:18;;;;;;;0.83;0.70;;;16.10;99.90;;;16.57;nan;100467.63;5022229;28;21089;-65
2023/04/11 06:46:45;;;;;;;0.83;0.83;;;16.30;99.90;;;16.76;nan;100472.72;5024850;28;20667;-66
2023/04/11 06:49:16;;;;;;;0.87;0.87;;;16.60;99.90;;;16.98;nan;100474.84;5023039;28;20620;-65
2023/04/11 06:51:50;;;;;;;0.57;0.57;;;16.80;99.90;;;17.48;nan;100484.69;5018766;28;21189;-67
2023/04/11 06:54:18;;;;;;;0.63;0.63;;;17.30;99.90;;;17.89;nan;100467.25;5021892;28;20677;-66
2023/04/11 06:56:46;;;;;;;0.80;0.80;;;17.70;99.90;;;18.11;nan;100477.19;5024035;28;21218;-66
2023/04/11 06:59:13;;;;;;;0.90;0.90;;;17.90;99.90;;;18.19;nan;100480.66;5023233;28;20636;-65
2023/04/11 07:01:40;;;;;;;2.40;1.27;;;18.00;99.90;;;18.02;nan;100475.50;5024444;28;20640;-66
2023/04/11 07:04:13;;;;;;;1.07;0.97;;;17.90;99.90;;;17.83;nan;100500.34;5020697;28;20664;-67
2023/04/11 07:06:40;;;;;;;0.80;0.80;;;17.70;99.90;;;17.70;nan;100507.91;5028207;28;20633;-67
2023/04/11 07:09:08;;;;;;;1.60;0.87;;;17.60;99.90;;;17.70;nan;100507.91;5011548;28;20659;-66
2023/04/11 07:11:37;;;;;;;1.17;0.70;;;17.60;99.90;;;17.60;nan;100494.84;5028419;28;21018;-65
2023/04/11 07:14:04;;;;;;;1.40;0.70;;;17.50;99.90;;;17.32;nan;100500.41;5026547;28;20664;-66
2023/04/11 07:16:31;;;;;;;1.53;0.70;;;17.20;99.90;;;17.30;nan;100503.22;5029868;28;20642;-66
2023/04/11 07:18:58;;;;;;;3.03;0.70;;;17.10;99.90;;;17.83;nan;100505.63;5028685;28;20625;-67
2023/04/11 07:21:29;;;;;;;3.27;0.80;;;17.50;99.90;;;18.49;nan;100498.56;5031468;28;20631;-66
2023/04/11 07:23:55;;;;;;;2.77;0.97;;;18.20;99.90;;;18.86;nan;100495.44;5031887;28;20706;-68
2023/04/11 07:26:23;;;;;;;1.30;0.90;;;18.70;99.90;;;19.02;nan;100505.97;5035099;28;20679;-65
2023/04/11 07:28:50;;;;;;;2.00;0.90;;;18.90;98.30;;;19.41;nan;100515.84;5032040;28;21172;-67
2023/04/11 07:31:20;;;;;;;2.57;0.83;;;19.20;97.40;;;19.93;nan;100507.19;5032858;28;20992;-66
2023/04/11 07:33:47;;;;;;;1.50;0.97;;;19.80;96.40;;;20.50;nan;100498.94;5034163;28;20652;-67
2023/04/11 07:36:14;;;;;;;1.57;1.03;;;20.30;95.10;;;20.87;nan;100504.25;5035997;28;21231;-67
2023/04/11 07:38:42;;;;;;;2.83;1.10;;;20.70;94.10;;;21.24;nan;100506.09;5014235;28;21038;-66
2023/04/11 07:41:09;;;;;;;1.80;1.00;;;21.10;93.00;;;21.44;nan;100508.03;5032458;28;20690;-66
2023/04/11 07:43:36;;;;;;;2.60;1.00;;;21.40;91.70;;;21.42;nan;100510.03;5027921;28;20680;-65
2023/04/11 07:46:03;;;;;;;1.13;0.93;;;21.50;90.30;;;21.67;nan;100523.03;5032469;28;20635;-65
2023/04/11 07:48:30;;;;;;;1.57;0.90;;;21.60;89.20;;;21.69;nan;100513.88;5015685;28;20636;-65
2023/04/11 07:50:57;;;;;;;1.10;0.97;;;21.60;88.30;;;21.66;nan;100524.84;5017875;28;20999;-66
2023/04/11 07:53:25;;;;;;;1.23;0.90;;;21.70;87.10;;;21.19;nan;100527.84;5033120;28;21044;-65
2023/04/11 07:55:52;;;;;;;1.47;1.30;;;21.40;84.00;;;20.47;nan;100520.47;5043553;22;20802;-69
2023/04/11 07:58:19;;;;;;;1.23;1.00;;;20.60;85.20;;;20.58;nan;100523.56;5017957;28;20640;-67
2023/04/11 08:00:46;;;;;;;3.10;1.20;;;20.70;85.20;;;21.14;nan;100524.94;5012382;28;20640;-67
2023/04/11 08:03:13;;;;;;;2.90;1.00;;;21.20;84.40;;;22.07;nan;100530.50;5013941;28;20631;-67
2023/04/11 08:05:40;;;;;;;0.70;0.70;;;22.20;81.50;;;22.94;nan;100522.22;4999712;28;21073;-67
2023/04/11 08:08:07;;;;;;;2.10;0.60;;;23.10;78.10;;;23.84;nan;100522.19;4993468;28;20645;-68
2023/04/11 08:10:34;;;;;;;3.20;0.90;;;24.10;71.70;;;24.71;nan;100520.38;4992201;28;20630;-67
2023/04/11 08:13:01;;;;;;;1.40;0.60;;;25.00;67.40;;;25.36;nan;100523.03;4993092;28;20638;-69
2023/04/11 08:15:28;;;;;;;1.97;1.30;;;25.80;64.50;;;26.02;nan;100523.66;4993819;28;20666;-68
2023/04/11 08:17:55;;;;;;;1.77;1.10;;;26.60;61.30;;;26.31;nan;100530.34;5003282;28;20642;-70
2023/04/11 08:20:23;;;;;;;0.77;0.77;;;27.00;59.30;;;26.50;nan;100520.53;4993039;28;20634;-67
2023/04/11 08:22:50;;;;;;;1.10;1.00;;;27.20;56.20;;;26.25;nan;100533.03;4992816;28;20634;-66
2023/04/11 08:25:24;;;;;;;1.10;1.00;;;26.80;56.00;;;24.83;nan;100531.31;4993325;28;21230;-68
2023/04/11 08:27:51;;;;;;;0.83;0.80;;;25.60;56.70;;;23.34;nan;100549.16;4997843;28;20686;-67
2023/04/11 08:30:19;;;;;;;4.30;1.00;;;24.00;57.90;;;21.55;nan;100539.41;5009562;28;20636;-68
2023/04/11 08:32:46;;;;;;;1.10;0.60;;;22.10;60.30;;;20.43;nan;100535.91;4996840;28;21201;-67
2023/04/11 08:35:13;;;;;;;1.43;0.80;;;20.90;62.50;;;19.69;nan;100535.59;4984534;28;21280;-67
2023/04/11 08:37:40;;;;;;;2.20;1.00;;;19.90;64.50;;;18.98;nan;100527.63;4993795;28;20634;-68
2023/04/11 08:40:07;;;;;;;1.33;0.80;;;19.10;66.70;;;18.37;nan;100539.47;4994130;28;21227;-67
2023/04/11 08:42:35;;;;;;;1.40;0.80;;;18.50;68.40;;;17.71;nan;100539.41;4994786;28;20631;-67
2023/04/11 08:45:07;;;;;;;1.50;0.70;;;17.70;71.60;;;17.40;nan;100534.78;4994793;28;20899;-69
2023/04/11 08:47:35;;;;;;;4.67;0.60;;;17.30;72.80;;;17.18;nan;100541.38;4992685;28;20637;-69
2023/04/11 08:50:05;;;;;;;0.60;0.60;;;17.00;74.30;;;17.18;nan;100535.28;5002008;28;20629;-67
2023/04/11 08:52:33;;;;;;;2.07;0.73;;;17.00;75.70;;;18.04;nan;100535.06;5001093;28;21214;-69
2023/04/11 08:55:00;;;;;;;2.23;1.03;;;17.80;75.40;;;20.01;nan;100538.97;4989747;28;20678;-67
2023/04/11 08:57:30;;;;;;;1.23;1.00;;;19.50;72.60;;;22.06;nan;100534.19;4996778;28;21198;-65
2023/04/11 09:00:07;;;;;;;1.30;0.73;;;21.80;67.90;;;23.12;nan;100533.22;4992307;28;21238;-68
2023/04/11 09:02:34;;;;;;;1.80;1.00;;;22.90;63.70;;;24.20;nan;100532.59;4990798;28;20996;-65
2023/04/11 09:05:01;;;;;;;3.80;1.07;;;24.00;62.40;;;25.12;nan;100537.03;5000917;28;21232;-68
2023/04/11 09:07:28;;;;;;;1.53;0.83;;;25.10;60.30;;;24.56;nan;100531.25;4996069;28;20650;-67
2023/04/11 09:09:55;;;;;;;2.20;0.90;;;24.90;59.00;;;23.41;nan;100528.69;4997621;28;20637;-67
2023/04/11 09:12:29;;;;;;;1.00;1.00;;;23.70;59.50;;;22.28;nan;100533.19;4998104;28;20672;-67
2023/04/11 09:14:56;;;;;;;0.80;0.60;;;22.60;61.40;;;21.09;nan;100532.59;4992795;28;20672;-68
2023/04/11 09:17:23;;;;;;;1.90;0.90;;;21.40;63.00;;;20.11;nan;100536.91;4991785;28;20638;-68
2023/04/11 09:19:50;;;;;;;4.27;1.10;;;20.30;64.70;;;19.39;nan;100533.72;4991730;28;20638;-67
2023/04/11 09:22:17;;;;;;;1.00;0.70;;;19.50;65.90;;;18.42;nan;100521.28;4984497;28;20638;-68
2023/04/11 09:25:00;;;;;;;1.37;1.13;;;18.60;68.20;;;17.77;nan;100537.94;4992355;28;20674;-67
2023/04/11 09:27:27;;;;;;;1.70;0.77;;;17.90;69.90;;;17.18;nan;100544.03;4985431;28;20693;-68
2023/04/11 09:29:55;;;;;;;0.77;0.60;;;17.20;73.20;;;16.54;nan;100541.69;4992110;28;20672;-67
2023/04/11 09:32:27;;;;;;;0.90;0.77;;;16.60;80.60;;;16.15;nan;100546.34;4988399;28;20697;-67
2023/04/11 09:35:21;;;;;;;2.70;1.03;;;16.10;85.60;;;15.79;nan;100549.88;4987276;28;20653;-71
2023/04/11 09:37:57;;;;;;;0.60;0.60;;;15.80;90.40;;;15.71;nan;100551.56;4991837;28;20631;-67
2023/04/11 09:40:32;;;;;;;3.20;0.90;;;15.60;92.80;;;16.01;nan;100559.19;4993798;28;20637;-67
2023/04/11 09:43:03;;;;;;;1.30;0.50;;;15.80;94.20;;;16.55;nan;100555.66;4983597;28;20642;-68
2023/04/11 09:45:30;;;;;;;0.63;0.60;;;16.30;93.60;;;16.87;nan;100555.97;4990425;28;20685;-67
2023/04/11 09:48:04;;;;;;;0.57;0.57;;;16.60;93.10;;;17.66;nan;100564.59;4983205;28;20636;-67
2023/04/11 09:50:33;;;;;;;0.33;0.33;;;17.40;91.80;;;19.39;nan;100557.53;4986400;28;20638;-69
2023/04/11 09:53:00;;;;;;;1.00;0.70;;;18.90;89.20;;;22.33;nan;100565.38;4993271;28;20746;-67
2023/04/11 09:55:27;;;;;;;0.50;0.47;;;21.70;80.70;;;24.63;nan;100571.28;5010867;28;20677;-67
2023/04/11 09:57:54;;;;;;;1.17;0.70;;;24.40;71.30;;;27.13;nan;100564.97;5003572;28;20704;-67
2023/04/11 10:00:28;;;;;;;0.93;0.80;;;27.00;65.40;;;27.89;nan;100564.63;4998892;28;21188;-68
2023/04/11 10:02:55;;;;;;;1.80;1.13;;;28.40;59.40;;;26.79;nan;100562.78;4999496;28;21013;-68
2023/04/11 10:05:28;;;;;;;1.67;1.00;;;27.60;57.70;;;24.72;nan;100559.38;4996393;28;21032;-67
2023/04/11 10:08:11;;;;;;;0.70;0.70;;;25.50;59.70;;;23.86;nan;100558.28;4990995;28;20631;-67
2023/04/11 10:10:41;;;;;;;0.97;0.80;;;24.40;61.30;;;22.79;nan;100565.84;4990408;28;20629;-68
2023/04/11 10:13:42;;;;;;;2.50;0.93;;;23.40;62.30;;;22.99;nan;100562.38;4972063;28;20685;-67
2023/04/11 10:16:21;;;;;;;3.10;0.80;;;23.30;64.10;;;23.71;nan;100564.75;4952440;28;20663;-67
2023/04/11 10:18:54;;;;;;;1.37;0.97;;;23.90;63.40;;;23.75;nan;100568.66;4999767;28;21201;-69
2023/04/11 10:21:29;;;;;;;1.53;0.80;;;24.00;61.80;;;23.64;nan;100566.53;5007056;28;20626;-67
2023/04/11 10:24:14;;;;;;;1.13;0.83;;;23.80;61.90;;;24.24;nan;100563.16;4991509;28;20697;-66
2023/04/11 10:27:03;;;;;;;1.67;0.90;;;24.20;61.50;;;24.68;nan;100550.16;4985936;28;20615;-67
2023/04/11 10:32:15;;;;;;;2.60;1.03;;;24.10;61.50;;;23.42;nan;100559.66;4995880;28;20645;-69
2023/04/11 10:34:54;;;;;;;1.37;0.60;;;23.40;61.70;;;22.20;nan;100576.66;4977363;28;20670;-69